sensor_id;sensor_type;location;lat;lon;timestamp;P1;durP1;ratioP1;P2;durP2;ratioP2
39740;SDS011;25426;53.478;10.190;2023-03-01T00:00:24;31.60;;;23.20;;
39740;SDS011;25426;53.478;10.190;2023-03-01T00:02:55;38.10;;;23.83;;
39740;SDS011;25426;53.478;10.190;2023-03-01T00:05:26;32.67;;;23.70;;
39740;SDS011;25426;53.478;10.190;2023-03-01T00:07:57;30.77;;;21.50;;
39740;SDS011;25426;53.478;10.190;2023-03-01T00:10:28;36.63;;;21.80;;
39740;SDS011;25426;53.478;10.190;2023-03-01T00:12:59;26.43;;;18.90;;
39740;SDS011;25426;53.478;10.190;2023-03-01T00:15:30;30.47;;;19.43;;
39740;SDS011;25426;53.478;10.190;2023-03-01T00:18:02;31.17;;;18.83;;
39740;SDS011;25426;53.478;10.190;2023-03-01T00:20:33;29.83;;;19.30;;
39740;SDS011;25426;53.478;10.190;2023-03-01T00:23:04;27.73;;;19.30;;
39740;SDS011;25426;53.478;10.190;2023-03-01T00:25:40;27.50;;;19.07;;
39740;SDS011;25426;53.478;10.190;2023-03-01T00:28:12;31.57;;;18.70;;
39740;SDS011;25426;53.478;10.190;2023-03-01T00:30:44;29.73;;;19.27;;
39740;SDS011;25426;53.478;10.190;2023-03-01T00:33:15;24.70;;;17.83;;
39740;SDS011;25426;53.478;10.190;2023-03-01T00:35:46;28.67;;;18.90;;
39740;SDS011;25426;53.478;10.190;2023-03-01T00:38:17;26.60;;;17.93;;
39740;SDS011;25426;53.478;10.190;2023-03-01T00:40:48;25.00;;;18.10;;
39740;SDS011;25426;53.478;10.190;2023-03-01T00:43:19;27.83;;;18.57;;
39740;SDS011;25426;53.478;10.190;2023-03-01T00:45:50;24.53;;;17.23;;
39740;SDS011;25426;53.478;10.190;2023-03-01T00:48:21;25.77;;;17.17;;
39740;SDS011;25426;53.478;10.190;2023-03-01T00:50:52;23.50;;;16.07;;
39740;SDS011;25426;53.478;10.190;2023-03-01T00:53:26;22.13;;;16.93;;
39740;SDS011;25426;53.478;10.190;2023-03-01T00:55:57;26.17;;;16.50;;
39740;SDS011;25426;53.478;10.190;2023-03-01T00:58:29;25.47;;;17.70;;
39740;SDS011;25426;53.478;10.190;2023-03-01T01:01:00;28.90;;;17.17;;
39740;SDS011;25426;53.478;10.190;2023-03-01T01:03:53;28.27;;;15.97;;
39740;SDS011;25426;53.478;10.190;2023-03-01T01:06:28;26.37;;;16.13;;
39740;SDS011;25426;53.478;10.190;2023-03-01T01:09:06;24.20;;;16.57;;
39740;SDS011;25426;53.478;10.190;2023-03-01T01:11:37;23.43;;;14.73;;
39740;SDS011;25426;53.478;10.190;2023-03-01T01:14:08;22.80;;;15.37;;
39740;SDS011;25426;53.478;10.190;2023-03-01T01:16:39;22.87;;;16.30;;
39740;SDS011;25426;53.478;10.190;2023-03-01T01:19:11;21.67;;;15.90;;
39740;SDS011;25426;53.478;10.190;2023-03-01T01:21:43;20.53;;;14.73;;
39740;SDS011;25426;53.478;10.190;2023-03-01T01:24:15;22.47;;;15.40;;
39740;SDS011;25426;53.478;10.190;2023-03-01T01:26:46;22.83;;;14.30;;
39740;SDS011;25426;53.478;10.190;2023-03-01T01:29:17;21.53;;;13.77;;
39740;SDS011;25426;53.478;10.190;2023-03-01T01:31:48;21.33;;;14.67;;
39740;SDS011;25426;53.478;10.190;2023-03-01T01:34:20;21.27;;;14.80;;
39740;SDS011;25426;53.478;10.190;2023-03-01T01:36:52;26.83;;;14.30;;
39740;SDS011;25426;53.478;10.190;2023-03-01T01:39:24;21.43;;;13.30;;
39740;SDS011;25426;53.478;10.190;2023-03-01T01:41:54;18.73;;;13.93;;
39740;SDS011;25426;53.478;10.190;2023-03-01T01:44:26;21.73;;;14.00;;
39740;SDS011;25426;53.478;10.190;2023-03-01T01:47:00;18.67;;;14.17;;
39740;SDS011;25426;53.478;10.190;2023-03-01T01:49:41;24.53;;;14.07;;
39740;SDS011;25426;53.478;10.190;2023-03-01T01:52:29;18.73;;;13.43;;
39740;SDS011;25426;53.478;10.190;2023-03-01T01:55:07;21.93;;;13.67;;
39740;SDS011;25426;53.478;10.190;2023-03-01T01:57:45;20.93;;;13.87;;
39740;SDS011;25426;53.478;10.190;2023-03-01T02:00:21;19.87;;;12.67;;
39740;SDS011;25426;53.478;10.190;2023-03-01T02:03:00;16.00;;;12.47;;
39740;SDS011;25426;53.478;10.190;2023-03-01T02:05:43;17.73;;;12.13;;
39740;SDS011;25426;53.478;10.190;2023-03-01T02:08:37;15.50;;;11.93;;
39740;SDS011;25426;53.478;10.190;2023-03-01T02:11:11;22.63;;;13.43;;
39740;SDS011;25426;53.478;10.190;2023-03-01T02:13:44;18.97;;;12.27;;
39740;SDS011;25426;53.478;10.190;2023-03-01T02:16:17;17.17;;;11.33;;
39740;SDS011;25426;53.478;10.190;2023-03-01T02:18:48;17.33;;;12.40;;
39740;SDS011;25426;53.478;10.190;2023-03-01T02:21:24;18.20;;;12.47;;
39740;SDS011;25426;53.478;10.190;2023-03-01T02:24:53;16.13;;;11.67;;
39740;SDS011;25426;53.478;10.190;2023-03-01T02:27:49;17.27;;;13.33;;
39740;SDS011;25426;53.478;10.190;2023-03-01T02:30:24;15.07;;;10.73;;
39740;SDS011;25426;53.478;10.190;2023-03-01T02:32:56;16.57;;;11.57;;
39740;SDS011;25426;53.478;10.190;2023-03-01T02:35:36;15.73;;;10.90;;
39740;SDS011;25426;53.478;10.190;2023-03-01T02:38:08;17.57;;;11.97;;
39740;SDS011;25426;53.478;10.190;2023-03-01T02:40:39;24.00;;;13.17;;
39740;SDS011;25426;53.478;10.190;2023-03-01T02:43:11;15.57;;;11.53;;
39740;SDS011;25426;53.478;10.190;2023-03-01T02:45:47;15.57;;;12.57;;
39740;SDS011;25426;53.478;10.190;2023-03-01T02:48:20;18.90;;;11.27;;
39740;SDS011;25426;53.478;10.190;2023-03-01T02:51:11;14.17;;;11.23;;
39740;SDS011;25426;53.478;10.190;2023-03-01T02:54:22;15.63;;;10.63;;
39740;SDS011;25426;53.478;10.190;2023-03-01T02:57:10;20.90;;;12.00;;
39740;SDS011;25426;53.478;10.190;2023-03-01T02:59:41;16.30;;;11.07;;
39740;SDS011;25426;53.478;10.190;2023-03-01T03:02:20;21.67;;;13.23;;
39740;SDS011;25426;53.478;10.190;2023-03-01T03:05:14;21.27;;;14.17;;
39740;SDS011;25426;53.478;10.190;2023-03-01T03:07:49;20.97;;;15.20;;
39740;SDS011;25426;53.478;10.190;2023-03-01T03:10:29;26.13;;;15.57;;
39740;SDS011;25426;53.478;10.190;2023-03-01T03:13:07;21.93;;;13.97;;
39740;SDS011;25426;53.478;10.190;2023-03-01T03:15:44;16.90;;;11.47;;
39740;SDS011;25426;53.478;10.190;2023-03-01T03:18:16;13.63;;;10.47;;
39740;SDS011;25426;53.478;10.190;2023-03-01T03:20:47;19.90;;;12.07;;
39740;SDS011;25426;53.478;10.190;2023-03-01T03:23:22;16.67;;;11.83;;
39740;SDS011;25426;53.478;10.190;2023-03-01T03:25:54;14.77;;;11.23;;
39740;SDS011;25426;53.478;10.190;2023-03-01T03:28:24;16.13;;;12.50;;
39740;SDS011;25426;53.478;10.190;2023-03-01T03:30:55;15.97;;;11.80;;
39740;SDS011;25426;53.478;10.190;2023-03-01T03:33:26;18.60;;;11.67;;
39740;SDS011;25426;53.478;10.190;2023-03-01T03:35:57;15.80;;;12.10;;
39740;SDS011;25426;53.478;10.190;2023-03-01T03:38:28;15.50;;;12.20;;
39740;SDS011;25426;53.478;10.190;2023-03-01T03:41:04;15.03;;;11.60;;
39740;SDS011;25426;53.478;10.190;2023-03-01T03:43:38;16.60;;;11.63;;
39740;SDS011;25426;53.478;10.190;2023-03-01T03:46:10;15.70;;;12.43;;
39740;SDS011;25426;53.478;10.190;2023-03-01T03:48:42;16.37;;;11.53;;
39740;SDS011;25426;53.478;10.190;2023-03-01T03:51:16;16.37;;;11.13;;
39740;SDS011;25426;53.478;10.190;2023-03-01T03:53:48;16.83;;;11.63;;
39740;SDS011;25426;53.478;10.190;2023-03-01T03:56:19;15.30;;;12.40;;
39740;SDS011;25426;53.478;10.190;2023-03-01T03:58:50;16.07;;;12.17;;
39740;SDS011;25426;53.478;10.190;2023-03-01T04:01:21;16.17;;;12.60;;
39740;SDS011;25426;53.478;10.190;2023-03-01T04:03:52;16.83;;;12.70;;
39740;SDS011;25426;53.478;10.190;2023-03-01T04:06:24;17.10;;;12.80;;
39740;SDS011;25426;53.478;10.190;2023-03-01T04:08:55;17.87;;;13.17;;
39740;SDS011;25426;53.478;10.190;2023-03-01T04:11:29;19.80;;;14.03;;
39740;SDS011;25426;53.478;10.190;2023-03-01T04:14:01;19.73;;;14.77;;
39740;SDS011;25426;53.478;10.190;2023-03-01T04:16:34;19.97;;;13.17;;
39740;SDS011;25426;53.478;10.190;2023-03-01T04:19:05;18.27;;;13.67;;
39740;SDS011;25426;53.478;10.190;2023-03-01T04:21:36;18.20;;;13.17;;
39740;SDS011;25426;53.478;10.190;2023-03-01T04:24:07;17.30;;;13.90;;
39740;SDS011;25426;53.478;10.190;2023-03-01T04:26:39;20.13;;;13.67;;
39740;SDS011;25426;53.478;10.190;2023-03-01T04:29:10;22.20;;;16.00;;
39740;SDS011;25426;53.478;10.190;2023-03-01T04:31:41;20.80;;;14.20;;
39740;SDS011;25426;53.478;10.190;2023-03-01T04:34:12;24.80;;;14.97;;
39740;SDS011;25426;53.478;10.190;2023-03-01T04:36:44;17.77;;;12.37;;
39740;SDS011;25426;53.478;10.190;2023-03-01T04:39:15;16.67;;;12.90;;
39740;SDS011;25426;53.478;10.190;2023-03-01T04:41:46;13.87;;;11.33;;
39740;SDS011;25426;53.478;10.190;2023-03-01T04:44:17;16.97;;;11.97;;
39740;SDS011;25426;53.478;10.190;2023-03-01T04:46:49;16.90;;;11.97;;
39740;SDS011;25426;53.478;10.190;2023-03-01T04:49:20;16.50;;;12.50;;
39740;SDS011;25426;53.478;10.190;2023-03-01T04:51:51;14.67;;;11.00;;
39740;SDS011;25426;53.478;10.190;2023-03-01T04:54:22;13.97;;;11.03;;
39740;SDS011;25426;53.478;10.190;2023-03-01T04:56:53;15.20;;;11.03;;
39740;SDS011;25426;53.478;10.190;2023-03-01T04:59:24;16.00;;;12.33;;
39740;SDS011;25426;53.478;10.190;2023-03-01T05:01:56;14.97;;;11.87;;
39740;SDS011;25426;53.478;10.190;2023-03-01T05:04:27;16.90;;;12.13;;
39740;SDS011;25426;53.478;10.190;2023-03-01T05:06:58;16.97;;;12.17;;
39740;SDS011;25426;53.478;10.190;2023-03-01T05:09:29;14.60;;;11.50;;
39740;SDS011;25426;53.478;10.190;2023-03-01T05:12:00;14.57;;;11.53;;
39740;SDS011;25426;53.478;10.190;2023-03-01T05:14:31;13.97;;;11.47;;
39740;SDS011;25426;53.478;10.190;2023-03-01T05:17:02;14.73;;;11.37;;
39740;SDS011;25426;53.478;10.190;2023-03-01T05:19:33;17.60;;;11.87;;
39740;SDS011;25426;53.478;10.190;2023-03-01T05:22:04;13.77;;;11.10;;
39740;SDS011;25426;53.478;10.190;2023-03-01T05:24:35;12.97;;;10.80;;
39740;SDS011;25426;53.478;10.190;2023-03-01T05:27:08;14.73;;;11.43;;
39740;SDS011;25426;53.478;10.190;2023-03-01T05:29:39;16.13;;;11.97;;
39740;SDS011;25426;53.478;10.190;2023-03-01T05:32:10;13.13;;;11.73;;
39740;SDS011;25426;53.478;10.190;2023-03-01T05:34:45;15.63;;;11.87;;
39740;SDS011;25426;53.478;10.190;2023-03-01T05:37:16;17.60;;;12.10;;
39740;SDS011;25426;53.478;10.190;2023-03-01T05:39:47;13.87;;;11.87;;
39740;SDS011;25426;53.478;10.190;2023-03-01T05:42:20;14.20;;;11.83;;
39740;SDS011;25426;53.478;10.190;2023-03-01T05:44:51;15.17;;;11.13;;
39740;SDS011;25426;53.478;10.190;2023-03-01T05:47:22;15.47;;;11.40;;
39740;SDS011;25426;53.478;10.190;2023-03-01T05:49:53;15.97;;;12.40;;
39740;SDS011;25426;53.478;10.190;2023-03-01T05:52:24;18.93;;;12.13;;
39740;SDS011;25426;53.478;10.190;2023-03-01T05:54:54;13.00;;;11.60;;
39740;SDS011;25426;53.478;10.190;2023-03-01T05:57:27;18.90;;;11.83;;
39740;SDS011;25426;53.478;10.190;2023-03-01T05:59:59;14.97;;;11.90;;
39740;SDS011;25426;53.478;10.190;2023-03-01T06:02:30;17.27;;;12.73;;
39740;SDS011;25426;53.478;10.190;2023-03-01T06:05:01;13.80;;;11.20;;
39740;SDS011;25426;53.478;10.190;2023-03-01T06:07:32;20.43;;;12.43;;
39740;SDS011;25426;53.478;10.190;2023-03-01T06:10:04;18.13;;;11.40;;
39740;SDS011;25426;53.478;10.190;2023-03-01T06:12:37;15.73;;;11.37;;
39740;SDS011;25426;53.478;10.190;2023-03-01T06:15:11;15.80;;;11.67;;
39740;SDS011;25426;53.478;10.190;2023-03-01T06:17:45;13.83;;;11.30;;
39740;SDS011;25426;53.478;10.190;2023-03-01T06:20:18;15.43;;;11.37;;
39740;SDS011;25426;53.478;10.190;2023-03-01T06:22:51;16.63;;;11.93;;
39740;SDS011;25426;53.478;10.190;2023-03-01T06:25:24;15.07;;;10.90;;
39740;SDS011;25426;53.478;10.190;2023-03-01T06:27:56;11.87;;;10.63;;
39740;SDS011;25426;53.478;10.190;2023-03-01T06:30:27;14.80;;;10.50;;
39740;SDS011;25426;53.478;10.190;2023-03-01T06:32:58;15.90;;;10.90;;
39740;SDS011;25426;53.478;10.190;2023-03-01T06:35:33;13.60;;;10.67;;
39740;SDS011;25426;53.478;10.190;2023-03-01T06:38:04;13.80;;;10.77;;
39740;SDS011;25426;53.478;10.190;2023-03-01T06:40:35;14.67;;;11.43;;
39740;SDS011;25426;53.478;10.190;2023-03-01T06:43:07;15.40;;;10.93;;
39740;SDS011;25426;53.478;10.190;2023-03-01T06:45:38;18.17;;;11.40;;
39740;SDS011;25426;53.478;10.190;2023-03-01T06:48:09;12.13;;;10.83;;
39740;SDS011;25426;53.478;10.190;2023-03-01T06:50:40;13.60;;;11.27;;
39740;SDS011;25426;53.478;10.190;2023-03-01T06:53:11;13.83;;;10.07;;
39740;SDS011;25426;53.478;10.190;2023-03-01T06:55:41;13.83;;;12.20;;
39740;SDS011;25426;53.478;10.190;2023-03-01T06:58:12;16.23;;;10.73;;
39740;SDS011;25426;53.478;10.190;2023-03-01T07:00:43;13.30;;;10.47;;
39740;SDS011;25426;53.478;10.190;2023-03-01T07:03:14;11.90;;;10.60;;
39740;SDS011;25426;53.478;10.190;2023-03-01T07:05:48;13.00;;;10.80;;
39740;SDS011;25426;53.478;10.190;2023-03-01T07:08:21;16.80;;;10.57;;
39740;SDS011;25426;53.478;10.190;2023-03-01T07:10:56;12.13;;;10.13;;
39740;SDS011;25426;53.478;10.190;2023-03-01T07:13:32;18.53;;;10.20;;
39740;SDS011;25426;53.478;10.190;2023-03-01T07:16:03;13.27;;;10.77;;
39740;SDS011;25426;53.478;10.190;2023-03-01T07:18:34;16.73;;;10.73;;
39740;SDS011;25426;53.478;10.190;2023-03-01T07:21:06;13.07;;;10.93;;
39740;SDS011;25426;53.478;10.190;2023-03-01T07:23:38;30.03;;;19.97;;
39740;SDS011;25426;53.478;10.190;2023-03-01T07:26:09;28.50;;;17.30;;
39740;SDS011;25426;53.478;10.190;2023-03-01T07:28:41;42.03;;;26.50;;
39740;SDS011;25426;53.478;10.190;2023-03-01T07:31:12;24.50;;;18.03;;
39740;SDS011;25426;53.478;10.190;2023-03-01T07:33:43;25.13;;;15.73;;
39740;SDS011;25426;53.478;10.190;2023-03-01T07:36:14;18.10;;;12.43;;
39740;SDS011;25426;53.478;10.190;2023-03-01T07:38:45;13.83;;;11.00;;
39740;SDS011;25426;53.478;10.190;2023-03-01T07:41:16;19.93;;;11.50;;
39740;SDS011;25426;53.478;10.190;2023-03-01T07:43:47;14.47;;;10.73;;
39740;SDS011;25426;53.478;10.190;2023-03-01T07:46:18;13.73;;;10.23;;
39740;SDS011;25426;53.478;10.190;2023-03-01T07:48:49;13.63;;;10.43;;
39740;SDS011;25426;53.478;10.190;2023-03-01T07:51:20;12.60;;;9.67;;
39740;SDS011;25426;53.478;10.190;2023-03-01T07:53:51;14.57;;;10.30;;
39740;SDS011;25426;53.478;10.190;2023-03-01T07:56:22;13.87;;;10.50;;
39740;SDS011;25426;53.478;10.190;2023-03-01T07:58:53;15.13;;;11.03;;
39740;SDS011;25426;53.478;10.190;2023-03-01T08:01:23;13.37;;;10.03;;
39740;SDS011;25426;53.478;10.190;2023-03-01T08:03:54;16.03;;;9.70;;
39740;SDS011;25426;53.478;10.190;2023-03-01T08:06:25;11.87;;;10.07;;
39740;SDS011;25426;53.478;10.190;2023-03-01T08:08:56;12.13;;;9.53;;
39740;SDS011;25426;53.478;10.190;2023-03-01T08:11:28;20.13;;;10.33;;
39740;SDS011;25426;53.478;10.190;2023-03-01T08:13:59;18.93;;;10.47;;
39740;SDS011;25426;53.478;10.190;2023-03-01T08:16:30;15.40;;;9.47;;
39740;SDS011;25426;53.478;10.190;2023-03-01T08:19:06;12.48;;;9.20;;
39740;SDS011;25426;53.478;10.190;2023-03-01T08:21:39;9.70;;;8.70;;
39740;SDS011;25426;53.478;10.190;2023-03-01T08:24:10;11.67;;;8.40;;
39740;SDS011;25426;53.478;10.190;2023-03-01T08:26:41;13.67;;;10.23;;
39740;SDS011;25426;53.478;10.190;2023-03-01T08:29:12;12.63;;;10.02;;
39740;SDS011;25426;53.478;10.190;2023-03-01T08:31:44;15.10;;;10.20;;
39740;SDS011;25426;53.478;10.190;2023-03-01T08:34:16;13.73;;;9.30;;
39740;SDS011;25426;53.478;10.190;2023-03-01T08:36:47;15.97;;;10.50;;
39740;SDS011;25426;53.478;10.190;2023-03-01T08:39:20;12.50;;;9.40;;
39740;SDS011;25426;53.478;10.190;2023-03-01T08:41:51;11.50;;;9.07;;
39740;SDS011;25426;53.478;10.190;2023-03-01T08:44:22;15.75;;;9.23;;
39740;SDS011;25426;53.478;10.190;2023-03-01T08:46:53;12.60;;;8.70;;
39740;SDS011;25426;53.478;10.190;2023-03-01T08:49:25;21.92;;;9.10;;
39740;SDS011;25426;53.478;10.190;2023-03-01T08:51:56;16.13;;;10.07;;
39740;SDS011;25426;53.478;10.190;2023-03-01T08:54:27;15.88;;;8.95;;
39740;SDS011;25426;53.478;10.190;2023-03-01T08:57:00;19.88;;;10.00;;
39740;SDS011;25426;53.478;10.190;2023-03-01T08:59:32;26.52;;;11.30;;
39740;SDS011;25426;53.478;10.190;2023-03-01T09:02:14;27.45;;;10.82;;
39740;SDS011;25426;53.478;10.190;2023-03-01T09:04:47;22.70;;;10.55;;
39740;SDS011;25426;53.478;10.190;2023-03-01T09:07:18;17.13;;;9.60;;
39740;SDS011;25426;53.478;10.190;2023-03-01T09:09:49;19.40;;;10.00;;
39740;SDS011;25426;53.478;10.190;2023-03-01T09:12:23;11.60;;;10.07;;
39740;SDS011;25426;53.478;10.190;2023-03-01T09:14:55;16.92;;;10.45;;
39740;SDS011;25426;53.478;10.190;2023-03-01T09:17:25;15.30;;;10.15;;
39740;SDS011;25426;53.478;10.190;2023-03-01T09:19:56;15.80;;;10.15;;
39740;SDS011;25426;53.478;10.190;2023-03-01T09:22:27;16.40;;;11.05;;
39740;SDS011;25426;53.478;10.190;2023-03-01T09:24:58;13.80;;;11.05;;
39740;SDS011;25426;53.478;10.190;2023-03-01T09:27:29;21.80;;;12.20;;
39740;SDS011;25426;53.478;10.190;2023-03-01T09:30:01;18.80;;;11.20;;
39740;SDS011;25426;53.478;10.190;2023-03-01T09:32:32;19.60;;;12.07;;
39740;SDS011;25426;53.478;10.190;2023-03-01T09:35:03;16.92;;;12.02;;
39740;SDS011;25426;53.478;10.190;2023-03-01T09:37:35;21.70;;;12.23;;
39740;SDS011;25426;53.478;10.190;2023-03-01T09:40:09;15.02;;;12.27;;
39740;SDS011;25426;53.478;10.190;2023-03-01T09:43:01;30.05;;;11.95;;
39740;SDS011;25426;53.478;10.190;2023-03-01T09:45:45;17.70;;;12.80;;
39740;SDS011;25426;53.478;10.190;2023-03-01T09:48:20;17.23;;;12.10;;
39740;SDS011;25426;53.478;10.190;2023-03-01T09:50:57;16.20;;;13.00;;
39740;SDS011;25426;53.478;10.190;2023-03-01T09:53:32;23.60;;;13.73;;
39740;SDS011;25426;53.478;10.190;2023-03-01T09:56:05;24.38;;;16.75;;
39740;SDS011;25426;53.478;10.190;2023-03-01T09:58:53;29.58;;;15.48;;
39740;SDS011;25426;53.478;10.190;2023-03-01T10:01:59;19.17;;;13.43;;
39740;SDS011;25426;53.478;10.190;2023-03-01T10:05:12;15.90;;;12.65;;
39740;SDS011;25426;53.478;10.190;2023-03-01T10:10:38;17.27;;;13.35;;
39740;SDS011;25426;53.478;10.190;2023-03-01T10:16:14;23.75;;;13.80;;
39740;SDS011;25426;53.478;10.190;2023-03-01T10:19:17;20.33;;;14.27;;
39740;SDS011;25426;53.478;10.190;2023-03-01T10:22:04;14.80;;;12.93;;
39740;SDS011;25426;53.478;10.190;2023-03-01T10:24:58;17.90;;;13.98;;
39740;SDS011;25426;53.478;10.190;2023-03-01T10:27:38;15.02;;;13.00;;
39740;SDS011;25426;53.478;10.190;2023-03-01T10:30:38;17.70;;;13.45;;
39740;SDS011;25426;53.478;10.190;2023-03-01T10:33:20;19.60;;;14.35;;
39740;SDS011;25426;53.478;10.190;2023-03-01T10:35:57;14.15;;;12.05;;
39740;SDS011;25426;53.478;10.190;2023-03-01T10:38:30;21.83;;;13.35;;
39740;SDS011;25426;53.478;10.190;2023-03-01T10:41:27;20.63;;;12.23;;
39740;SDS011;25426;53.478;10.190;2023-03-01T10:43:58;13.75;;;12.27;;
39740;SDS011;25426;53.478;10.190;2023-03-01T10:46:31;12.23;;;10.88;;
39740;SDS011;25426;53.478;10.190;2023-03-01T10:51:43;13.75;;;10.05;;
39740;SDS011;25426;53.478;10.190;2023-03-01T10:54:22;14.30;;;10.57;;
39740;SDS011;25426;53.478;10.190;2023-03-01T10:57:00;22.02;;;10.93;;
39740;SDS011;25426;53.478;10.190;2023-03-01T10:59:35;13.82;;;11.65;;
39740;SDS011;25426;53.478;10.190;2023-03-01T11:02:16;11.63;;;10.50;;
39740;SDS011;25426;53.478;10.190;2023-03-01T11:07:47;15.45;;;13.85;;
39740;SDS011;25426;53.478;10.190;2023-03-01T11:10:32;14.30;;;12.80;;
39740;SDS011;25426;53.478;10.190;2023-03-01T11:13:07;15.65;;;14.05;;
39740;SDS011;25426;53.478;10.190;2023-03-01T11:15:59;13.85;;;12.52;;
39740;SDS011;25426;53.478;10.190;2023-03-01T11:18:37;13.60;;;11.18;;
39740;SDS011;25426;53.478;10.190;2023-03-01T11:21:07;13.05;;;11.65;;
39740;SDS011;25426;53.478;10.190;2023-03-01T11:23:38;12.77;;;11.32;;
39740;SDS011;25426;53.478;10.190;2023-03-01T11:26:10;13.45;;;11.52;;
39740;SDS011;25426;53.478;10.190;2023-03-01T11:28:42;13.57;;;11.85;;
39740;SDS011;25426;53.478;10.190;2023-03-01T11:31:24;13.07;;;11.13;;
39740;SDS011;25426;53.478;10.190;2023-03-01T11:34:07;14.48;;;10.75;;
39740;SDS011;25426;53.478;10.190;2023-03-01T11:36:49;13.52;;;11.70;;
39740;SDS011;25426;53.478;10.190;2023-03-01T11:43:01;13.00;;;11.60;;
39740;SDS011;25426;53.478;10.190;2023-03-01T11:52:26;14.25;;;12.88;;
39740;SDS011;25426;53.478;10.190;2023-03-01T11:55:45;14.20;;;12.70;;
39740;SDS011;25426;53.478;10.190;2023-03-01T11:58:59;14.32;;;11.77;;
39740;SDS011;25426;53.478;10.190;2023-03-01T12:11:12;13.55;;;9.88;;
39740;SDS011;25426;53.478;10.190;2023-03-01T12:37:54;11.18;;;10.05;;
39740;SDS011;25426;53.478;10.190;2023-03-01T12:44:11;12.00;;;10.80;;
39740;SDS011;25426;53.478;10.190;2023-03-01T12:50:01;15.30;;;12.27;;
39740;SDS011;25426;53.478;10.190;2023-03-01T12:53:23;15.70;;;12.45;;
39740;SDS011;25426;53.478;10.190;2023-03-01T12:56:00;12.82;;;11.52;;
39740;SDS011;25426;53.478;10.190;2023-03-01T13:01:56;17.77;;;14.77;;
39740;SDS011;25426;53.478;10.190;2023-03-01T13:05:07;14.55;;;12.95;;
39740;SDS011;25426;53.478;10.190;2023-03-01T13:08:43;13.13;;;11.20;;
39740;SDS011;25426;53.478;10.190;2023-03-01T13:11:49;14.82;;;13.18;;
39740;SDS011;25426;53.478;10.190;2023-03-01T13:16:53;15.43;;;13.30;;
39740;SDS011;25426;53.478;10.190;2023-03-01T13:19:25;11.68;;;10.57;;
39740;SDS011;25426;53.478;10.190;2023-03-01T13:22:25;14.32;;;11.07;;
39740;SDS011;25426;53.478;10.190;2023-03-01T13:25:14;12.00;;;10.80;;
39740;SDS011;25426;53.478;10.190;2023-03-01T13:27:49;11.10;;;10.07;;
39740;SDS011;25426;53.478;10.190;2023-03-01T13:33:32;11.70;;;10.50;;
39740;SDS011;25426;53.478;10.190;2023-03-01T13:36:00;12.15;;;9.80;;
39740;SDS011;25426;53.478;10.190;2023-03-01T13:41:47;9.45;;;8.45;;
39740;SDS011;25426;53.478;10.190;2023-03-01T13:44:20;8.73;;;6.60;;
39740;SDS011;25426;53.478;10.190;2023-03-01T13:46:57;8.57;;;7.68;;
39740;SDS011;25426;53.478;10.190;2023-03-01T13:49:47;10.60;;;9.02;;
39740;SDS011;25426;53.478;10.190;2023-03-01T13:52:39;9.32;;;8.10;;
39740;SDS011;25426;53.478;10.190;2023-03-01T13:55:44;7.18;;;6.47;;
39740;SDS011;25426;53.478;10.190;2023-03-01T13:58:32;12.18;;;9.27;;
39740;SDS011;25426;53.478;10.190;2023-03-01T14:01:28;7.50;;;6.80;;
39740;SDS011;25426;53.478;10.190;2023-03-01T14:04:22;17.25;;;13.27;;
39740;SDS011;25426;53.478;10.190;2023-03-01T14:09:52;6.85;;;6.15;;
39740;SDS011;25426;53.478;10.190;2023-03-01T14:18:14;10.75;;;8.10;;
39740;SDS011;25426;53.478;10.190;2023-03-01T14:20:53;8.60;;;6.93;;
39740;SDS011;25426;53.478;10.190;2023-03-01T14:23:24;10.23;;;6.38;;
39740;SDS011;25426;53.478;10.190;2023-03-01T14:25:57;10.50;;;8.45;;
39740;SDS011;25426;53.478;10.190;2023-03-01T14:28:32;7.20;;;6.50;;
39740;SDS011;25426;53.478;10.190;2023-03-01T14:31:29;9.52;;;7.30;;
39740;SDS011;25426;53.478;10.190;2023-03-01T14:34:18;8.52;;;6.50;;
39740;SDS011;25426;53.478;10.190;2023-03-01T14:36:55;10.57;;;7.20;;
39740;SDS011;25426;53.478;10.190;2023-03-01T14:39:27;8.38;;;7.35;;
39740;SDS011;25426;53.478;10.190;2023-03-01T14:41:59;7.25;;;6.50;;
39740;SDS011;25426;53.478;10.190;2023-03-01T14:44:30;7.72;;;6.90;;
39740;SDS011;25426;53.478;10.190;2023-03-01T14:47:03;7.82;;;6.43;;
39740;SDS011;25426;53.478;10.190;2023-03-01T14:49:35;9.63;;;6.72;;
39740;SDS011;25426;53.478;10.190;2023-03-01T14:52:07;7.00;;;6.30;;
39740;SDS011;25426;53.478;10.190;2023-03-01T14:54:51;7.20;;;6.18;;
39740;SDS011;25426;53.478;10.190;2023-03-01T14:57:25;8.20;;;5.82;;
39740;SDS011;25426;53.478;10.190;2023-03-01T15:00:00;8.60;;;6.63;;
39740;SDS011;25426;53.478;10.190;2023-03-01T15:02:36;9.38;;;6.35;;
39740;SDS011;25426;53.478;10.190;2023-03-01T15:05:07;7.07;;;6.38;;
39740;SDS011;25426;53.478;10.190;2023-03-01T15:07:40;9.00;;;6.43;;
39740;SDS011;25426;53.478;10.190;2023-03-01T15:10:22;9.70;;;7.10;;
39740;SDS011;25426;53.478;10.190;2023-03-01T15:13:10;8.88;;;7.30;;
39740;SDS011;25426;53.478;10.190;2023-03-01T15:19:05;9.60;;;7.90;;
39740;SDS011;25426;53.478;10.190;2023-03-01T15:21:37;8.20;;;6.97;;
39740;SDS011;25426;53.478;10.190;2023-03-01T15:26:56;9.63;;;7.88;;
39740;SDS011;25426;53.478;10.190;2023-03-01T15:29:36;11.68;;;6.53;;
39740;SDS011;25426;53.478;10.190;2023-03-01T15:35:32;7.38;;;6.55;;
39740;SDS011;25426;53.478;10.190;2023-03-01T15:38:34;8.23;;;6.75;;
39740;SDS011;25426;53.478;10.190;2023-03-01T15:41:27;7.82;;;6.65;;
39740;SDS011;25426;53.478;10.190;2023-03-01T15:44:38;7.60;;;6.72;;
39740;SDS011;25426;53.478;10.190;2023-03-01T15:47:22;9.27;;;6.50;;
39740;SDS011;25426;53.478;10.190;2023-03-01T15:49:58;8.35;;;6.53;;
39740;SDS011;25426;53.478;10.190;2023-03-01T15:52:34;8.52;;;6.28;;
39740;SDS011;25426;53.478;10.190;2023-03-01T15:55:24;7.45;;;5.93;;
39740;SDS011;25426;53.478;10.190;2023-03-01T16:00:44;8.30;;;6.45;;
39740;SDS011;25426;53.478;10.190;2023-03-01T16:03:18;6.65;;;5.97;;
39740;SDS011;25426;53.478;10.190;2023-03-01T16:05:51;7.45;;;5.65;;
39740;SDS011;25426;53.478;10.190;2023-03-01T16:08:22;5.95;;;5.28;;
39740;SDS011;25426;53.478;10.190;2023-03-01T16:10:53;5.57;;;4.70;;
39740;SDS011;25426;53.478;10.190;2023-03-01T16:13:24;5.95;;;5.35;;
39740;SDS011;25426;53.478;10.190;2023-03-01T16:15:55;6.47;;;5.00;;
39740;SDS011;25426;53.478;10.190;2023-03-01T16:18:26;8.23;;;5.40;;
39740;SDS011;25426;53.478;10.190;2023-03-01T16:20:57;7.65;;;5.90;;
39740;SDS011;25426;53.478;10.190;2023-03-01T16:23:28;9.95;;;6.90;;
39740;SDS011;25426;53.478;10.190;2023-03-01T16:25:59;8.75;;;7.45;;
39740;SDS011;25426;53.478;10.190;2023-03-01T16:28:30;7.70;;;6.80;;
39740;SDS011;25426;53.478;10.190;2023-03-01T16:31:01;10.52;;;6.50;;
39740;SDS011;25426;53.478;10.190;2023-03-01T16:33:32;8.45;;;6.25;;
39740;SDS011;25426;53.478;10.190;2023-03-01T16:36:09;8.52;;;6.07;;
39740;SDS011;25426;53.478;10.190;2023-03-01T16:38:41;8.60;;;6.57;;